Time;durP1;ratioP1;P1;durP2;ratioP2;P2;SDS_P1;SDS_P2;PMS_P1;PMS_P2;Temp;Humidity;BMP_temperature;BMP_pressure;BME280_temperature;BME280_humidity;BME280_pressure;Samples;Min_cycle;Max_cycle;Signal;HPM_P1;HPM_P2
2021/04/18 00:00:42;;;;;;;19.67;11.97;;;;;;;;;;6048414;23;20300;-91
2021/04/18 00:03:46;;;;;;;20.77;12.37;;;;;;;;;;6050023;23;20199;-91
2021/04/18 00:06:51;;;;;;;22.77;12.17;;;;;;;;;;6049976;23;20171;-91
2021/04/18 00:09:56;;;;;;;20.57;10.57;;;;;;;;;;6049872;23;20216;-89
2021/04/18 00:13:01;;;;;;;20.33;12.30;;;;;;;;;;6049468;23;20259;-90
2021/04/18 00:16:06;;;;;;;19.90;12.10;;;;;;;;;;6049519;23;20220;-89
2021/04/18 00:19:11;;;;;;;19.77;11.30;;;;;;;;;;6049400;23;20208;-90
2021/04/18 00:22:17;;;;;;;19.63;11.70;;;;;;;;;;6047693;23;20251;-90
2021/04/18 00:25:21;;;;;;;22.73;11.90;;;;;;;;;;6049265;23;20253;-89
2021/04/18 00:28:26;;;;;;;19.67;12.40;;;;;;;;;;6049085;23;20258;-91
2021/04/18 00:31:30;;;;;;;23.20;12.87;;;;;;;;;;6048230;23;20191;-89
2021/04/18 00:34:35;;;;;;;20.30;12.10;;;;;;;;;;6050910;23;20199;-92
2021/04/18 00:37:41;;;;;;;22.77;12.70;;;;;;;;;;6049726;23;20171;-90
2021/04/18 00:40:45;;;;;;;20.60;12.07;;;;;;;;;;6049740;23;20253;-91
2021/04/18 00:43:50;;;;;;;22.00;12.10;;;;;;;;;;6050108;23;20210;-93
2021/04/18 00:46:55;;;;;;;21.63;11.80;;;;;;;;;;6049895;23;20672;-91
2021/04/18 00:49:59;;;;;;;24.67;12.77;;;;;;;;;;6050723;23;20257;-91
2021/04/18 00:53:07;;;;;;;22.87;12.07;;;;;;;;;;6052400;23;20159;-92
2021/04/18 00:56:12;;;;;;;21.37;12.20;;;;;;;;;;6049812;23;20241;-90
2021/04/18 00:59:16;;;;;;;20.73;12.63;;;;;;;;;;6050946;23;20196;-92
2021/04/18 01:02:22;;;;;;;21.77;11.93;;;;;;;;;;6049132;23;20195;-90
2021/04/18 01:05:26;;;;;;;22.13;13.30;;;;;;;;;;6049927;23;20167;-91
2021/04/18 01:08:32;;;;;;;22.67;12.77;;;;;;;;;;6050037;23;20179;-90
2021/04/18 01:11:37;;;;;;;20.63;12.07;;;;;;;;;;6050386;23;20319;-89
2021/04/18 01:14:42;;;;;;;24.30;13.37;;;;;;;;;;6049500;23;20171;-89
2021/04/18 01:17:47;;;;;;;23.77;11.80;;;;;;;;;;6049681;23;20175;-91
2021/04/18 01:21:07;;;;;;;22.53;12.00;;;;;;;;;;6050682;23;20204;-89
2021/04/18 01:24:33;;;;;;;23.37;13.37;;;;;;;;;;6049638;23;20199;-89
2021/04/18 01:27:57;;;;;;;21.50;11.73;;;;;;;;;;6049949;23;20175;-91
2021/04/18 01:31:02;;;;;;;20.43;12.47;;;;;;;;;;6049456;23;20171;-91
2021/04/18 01:34:07;;;;;;;23.37;12.60;;;;;;;;;;6050034;23;20623;-91
2021/04/18 01:37:12;;;;;;;23.53;13.43;;;;;;;;;;6050020;23;20179;-92
2021/04/18 01:40:18;;;;;;;22.50;12.80;;;;;;;;;;6050282;23;20639;-90
2021/04/18 01:43:23;;;;;;;23.23;13.50;;;;;;;;;;6050410;23;20199;-90
2021/04/18 01:46:28;;;;;;;21.93;11.87;;;;;;;;;;6048991;23;20303;-90
2021/04/18 01:49:33;;;;;;;24.10;12.53;;;;;;;;;;6050893;23;20171;-91
2021/04/18 01:52:39;;;;;;;21.70;12.87;;;;;;;;;;6049903;23;20223;-91
2021/04/18 01:55:44;;;;;;;21.40;12.47;;;;;;;;;;6050348;23;20457;-91
2021/04/18 01:58:48;;;;;;;19.83;12.30;;;;;;;;;;6048360;23;20183;-90
2021/04/18 02:02:19;;;;;;;23.57;13.27;;;;;;;;;;6051353;23;20191;-92
2021/04/18 02:05:33;;;;;;;21.43;12.80;;;;;;;;;;6051750;23;20202;-91
2021/04/18 02:08:39;;;;;;;21.37;12.27;;;;;;;;;;6051123;23;20684;-92
2021/04/18 02:11:44;;;;;;;21.63;12.43;;;;;;;;;;6050947;23;20263;-90
2021/04/18 02:14:53;;;;;;;19.50;11.77;;;;;;;;;;6050697;23;20196;-91
2021/04/18 02:18:00;;;;;;;23.93;13.37;;;;;;;;;;6052660;23;20205;-93
2021/04/18 02:21:05;;;;;;;20.93;11.80;;;;;;;;;;6051081;23;20175;-93
2021/04/18 02:24:11;;;;;;;20.10;12.27;;;;;;;;;;6050028;23;20199;-91
2021/04/18 02:27:17;;;;;;;23.83;13.07;;;;;;;;;;6050050;23;20635;-92
2021/04/18 02:30:36;;;;;;;20.53;12.67;;;;;;;;;;6049531;23;20163;-92
2021/04/18 02:33:41;;;;;;;24.97;13.37;;;;;;;;;;6049269;23;20151;-91
2021/04/18 02:36:46;;;;;;;22.83;12.47;;;;;;;;;;6049239;23;20195;-92
2021/04/18 02:39:52;;;;;;;23.27;13.40;;;;;;;;;;6049260;23;20174;-93
2021/04/18 02:42:57;;;;;;;20.57;12.40;;;;;;;;;;6049269;23;20239;-90
2021/04/18 02:46:02;;;;;;;21.67;12.97;;;;;;;;;;6049329;23;20175;-93
2021/04/18 02:49:08;;;;;;;24.07;13.67;;;;;;;;;;6048852;23;20179;-92
2021/04/18 02:52:16;;;;;;;21.10;13.20;;;;;;;;;;6048633;23;20204;-91
2021/04/18 02:55:21;;;;;;;21.47;13.17;;;;;;;;;;6050939;23;20667;-91
2021/04/18 02:58:42;;;;;;;21.00;11.60;;;;;;;;;;6047496;23;20163;-90
2021/04/18 03:01:47;;;;;;;22.93;12.80;;;;;;;;;;6048715;23;20267;-90
2021/04/18 03:04:56;;;;;;;23.80;13.13;;;;;;;;;;6049224;23;20186;-91
2021/04/18 03:08:02;;;;;;;24.07;13.30;;;;;;;;;;6049346;23;20784;-91
2021/04/18 03:11:08;;;;;;;20.07;12.37;;;;;;;;;;6050315;23;20207;-92
2021/04/18 03:14:13;;;;;;;22.53;12.90;;;;;;;;;;6048286;23;20199;-90
2021/04/18 03:17:18;;;;;;;21.27;12.53;;;;;;;;;;6049133;23;20178;-91
2021/04/18 03:20:32;;;;;;;23.97;13.00;;;;;;;;;;6048489;23;20182;-92
2021/04/18 03:23:38;;;;;;;26.00;12.10;;;;;;;;;;6049378;23;20627;-91
2021/04/18 03:26:43;;;;;;;20.87;11.83;;;;;;;;;;6049540;23;20178;-92
2021/04/18 03:29:49;;;;;;;21.73;12.37;;;;;;;;;;6049483;23;20244;-89
2021/04/18 03:32:54;;;;;;;20.50;12.57;;;;;;;;;;6049718;23;20183;-92
2021/04/18 03:36:01;;;;;;;22.77;12.60;;;;;;;;;;6049409;23;20224;-91
2021/04/18 03:39:09;;;;;;;22.53;13.00;;;;;;;;;;6048902;23;20179;-91
2021/04/18 03:42:16;;;;;;;22.83;13.20;;;;;;;;;;6049067;23;20247;-93
2021/04/18 03:45:21;;;;;;;24.20;13.43;;;;;;;;;;6049400;23;20659;-90
2021/04/18 03:48:30;;;;;;;23.00;12.70;;;;;;;;;;6048259;23;20289;-90
2021/04/18 03:51:36;;;;;;;22.63;13.13;;;;;;;;;;6049222;23;20203;-91
2021/04/18 03:54:47;;;;;;;20.87;12.83;;;;;;;;;;6049961;23;20190;-92
2021/04/18 03:57:53;;;;;;;24.50;13.70;;;;;;;;;;6049431;23;20198;-92
2021/04/18 04:01:00;;;;;;;23.23;13.43;;;;;;;;;;6048679;23;20190;-91
2021/04/18 04:04:07;;;;;;;24.60;13.47;;;;;;;;;;6049853;23;20235;-90
2021/04/18 04:07:18;;;;;;;24.10;13.90;;;;;;;;;;6049613;23;20163;-90
2021/04/18 04:10:23;;;;;;;22.00;12.73;;;;;;;;;;6049924;23;20220;-91
2021/04/18 04:13:31;;;;;;;21.70;13.27;;;;;;;;;;6048878;23;20182;-92
2021/04/18 04:16:38;;;;;;;23.53;13.33;;;;;;;;;;6050225;23;20196;-90
2021/04/18 04:19:42;;;;;;;24.30;13.57;;;;;;;;;;6049406;23;20495;-90
2021/04/18 04:23:05;;;;;;;25.40;13.53;;;;;;;;;;6050376;23;20187;-91
2021/04/18 04:26:10;;;;;;;23.17;13.50;;;;;;;;;;6049349;23;20175;-92
2021/04/18 04:29:16;;;;;;;27.33;13.80;;;;;;;;;;6049242;23;20175;-90
2021/04/18 04:32:20;;;;;;;24.93;13.93;;;;;;;;;;6048901;23;20179;-91
2021/04/18 04:35:25;;;;;;;21.60;13.17;;;;;;;;;;6048574;23;20627;-91
2021/04/18 04:38:30;;;;;;;25.23;13.23;;;;;;;;;;6048593;23;20178;-92
2021/04/18 04:41:35;;;;;;;22.87;13.53;;;;;;;;;;6049956;23;20199;-91
2021/04/18 04:44:41;;;;;;;23.67;14.50;;;;;;;;;;6050986;23;20540;-91
2021/04/18 04:47:45;;;;;;;22.33;13.67;;;;;;;;;;6049702;23;20175;-90
2021/04/18 04:50:49;;;;;;;24.77;13.37;;;;;;;;;;6049773;23;20194;-91
2021/04/18 04:53:54;;;;;;;23.37;12.77;;;;;;;;;;6050097;23;20167;-90
2021/04/18 04:56:59;;;;;;;22.27;13.50;;;;;;;;;;6050191;23;20508;-91
2021/04/18 05:00:05;;;;;;;26.67;13.70;;;;;;;;;;6050029;23;20205;-90
2021/04/18 05:03:09;;;;;;;23.17;12.93;;;;;;;;;;6049947;23;20172;-91
2021/04/18 05:06:14;;;;;;;25.43;14.27;;;;;;;;;;6048944;23;20555;-92
2021/04/18 05:09:19;;;;;;;26.27;13.63;;;;;;;;;;6049266;23;20220;-91
2021/04/18 05:12:23;;;;;;;23.23;13.40;;;;;;;;;;6051773;23;20159;-90
2021/04/18 05:15:29;;;;;;;24.50;13.20;;;;;;;;;;6050198;23;20172;-91
2021/04/18 05:18:34;;;;;;;23.37;13.70;;;;;;;;;;6052104;23;20171;-91
2021/04/18 05:21:39;;;;;;;21.63;12.90;;;;;;;;;;6051537;23;20245;-91
2021/04/18 05:24:43;;;;;;;21.50;12.97;;;;;;;;;;6050103;23;20240;-91
2021/04/18 05:27:49;;;;;;;24.47;13.73;;;;;;;;;;6050740;23;20220;-92
2021/04/18 05:30:55;;;;;;;23.63;13.10;;;;;;;;;;6048813;23;20668;-91
2021/04/18 05:34:00;;;;;;;23.83;13.30;;;;;;;;;;6050168;23;20179;-92
2021/04/18 05:37:05;;;;;;;21.03;12.57;;;;;;;;;;6049563;23;20243;-90
2021/04/18 05:40:10;;;;;;;24.13;12.77;;;;;;;;;;6050197;23;20220;-91
2021/04/18 05:43:15;;;;;;;22.13;12.60;;;;;;;;;;6050643;23;20190;-91
2021/04/18 05:46:20;;;;;;;23.93;13.27;;;;;;;;;;6049422;23;20626;-91
2021/04/18 05:49:25;;;;;;;25.30;13.53;;;;;;;;;;6050308;23;20198;-91
2021/04/18 05:52:30;;;;;;;22.33;12.80;;;;;;;;;;6050341;23;20211;-91
2021/04/18 05:55:36;;;;;;;23.50;13.87;;;;;;;;;;6050255;23;20191;-90
2021/04/18 05:58:40;;;;;;;23.43;13.90;;;;;;;;;;6049856;23;20175;-90
2021/04/18 06:01:46;;;;;;;23.73;13.43;;;;;;;;;;6051436;23;20224;-91
2021/04/18 06:04:50;;;;;;;24.50;13.47;;;;;;;;;;6051418;23;20244;-91
2021/04/18 06:07:55;;;;;;;23.30;13.53;;;;;;;;;;6050711;23;20171;-92
2021/04/18 06:11:01;;;;;;;25.40;14.40;;;;;;;;;;6050754;23;20175;-90
2021/04/18 06:14:06;;;;;;;24.70;13.97;;;;;;;;;;6049631;23;20175;-91
2021/04/18 06:17:11;;;;;;;26.80;13.47;;;;;;;;;;6051163;23;20172;-90
2021/04/18 06:20:16;;;;;;;23.67;13.50;;;;;;;;;;6052210;23;20223;-91
2021/04/18 06:23:22;;;;;;;23.00;12.90;;;;;;;;;;6051579;23;20248;-91
2021/04/18 06:26:26;;;;;;;22.37;13.23;;;;;;;;;;6053132;23;20250;-90
2021/04/18 06:29:31;;;;;;;23.43;14.53;;;;;;;;;;6051519;23;20258;-90
2021/04/18 06:32:37;;;;;;;26.57;14.10;;;;;;;;;;6051072;23;20258;-91
2021/04/18 06:35:42;;;;;;;23.47;12.90;;;;;;;;;;6050229;23;20223;-89
2021/04/18 06:38:46;;;;;;;25.63;13.43;;;;;;;;;;6049775;23;20573;-92
2021/04/18 06:41:52;;;;;;;25.77;13.57;;;;;;;;;;6050014;23;20171;-92
2021/04/18 06:44:57;;;;;;;23.70;13.50;;;;;;;;;;6050501;23;20195;-91
2021/04/18 06:48:03;;;;;;;27.40;14.30;;;;;;;;;;6048798;23;20245;-92
2021/04/18 06:51:08;;;;;;;25.47;13.80;;;;;;;;;;6049236;23;20167;-90
2021/04/18 06:54:13;;;;;;;23.67;13.47;;;;;;;;;;6050227;23;20616;-93
2021/04/18 06:57:18;;;;;;;22.40;12.93;;;;;;;;;;6050896;23;20184;-91
2021/04/18 07:00:23;;;;;;;24.40;13.40;;;;;;;;;;6049818;23;20231;-92
2021/04/18 07:03:29;;;;;;;22.80;13.37;;;;;;;;;;6049723;23;20186;-90
2021/04/18 07:06:37;;;;;;;25.80;14.20;;;;;;;;;;6052429;23;20171;-90
2021/04/18 07:09:46;;;;;;;26.87;13.60;;;;;;;;;;6048731;23;20175;-91
2021/04/18 07:12:50;;;;;;;26.37;13.43;;;;;;;;;;6050691;23;20175;-90
2021/04/18 07:15:55;;;;;;;23.40;12.27;;;;;;;;;;6050951;23;20170;-91
2021/04/18 07:19:01;;;;;;;22.70;12.83;;;;;;;;;;6050588;23;20210;-91
2021/04/18 07:22:08;;;;;;;23.03;13.10;;;;;;;;;;6050154;23;20179;-90
2021/04/18 07:25:13;;;;;;;22.00;12.43;;;;;;;;;;6048278;23;20247;-90
2021/04/18 07:28:24;;;;;;;24.73;13.27;;;;;;;;;;6048623;23;20219;-91
2021/04/18 07:31:30;;;;;;;21.27;12.70;;;;;;;;;;6049413;23;20184;-90
2021/04/18 07:34:37;;;;;;;21.07;12.10;;;;;;;;;;6049513;23;20196;-90
2021/04/18 07:37:42;;;;;;;21.07;12.57;;;;;;;;;;6050310;23;20200;-90
2021/04/18 07:40:48;;;;;;;23.67;13.70;;;;;;;;;;6051199;23;20188;-92
2021/04/18 07:43:54;;;;;;;22.27;13.17;;;;;;;;;;6050824;23;20226;-90
2021/04/18 07:47:00;;;;;;;22.20;13.13;;;;;;;;;;6053137;23;20159;-90
2021/04/18 07:50:06;;;;;;;23.63;13.07;;;;;;;;;;6053360;23;20179;-89
2021/04/18 07:53:12;;;;;;;26.93;12.33;;;;;;;;;;6051419;23;20556;-89
2021/04/18 07:56:16;;;;;;;23.50;13.47;;;;;;;;;;6051264;23;20183;-92
2021/04/18 07:59:21;;;;;;;25.23;13.50;;;;;;;;;;6051465;23;20167;-91
2021/04/18 08:02:26;;;;;;;23.70;13.27;;;;;;;;;;6049279;23;20195;-90
2021/04/18 08:05:32;;;;;;;22.07;13.20;;;;;;;;;;6053104;23;20198;-91
2021/04/18 08:08:47;;;;;;;23.80;13.40;;;;;;;;;;6051349;23;20220;-90
2021/04/18 08:12:08;;;;;;;23.17;13.00;;;;;;;;;;6052649;23;20150;-89
2021/04/18 08:15:15;;;;;;;22.87;13.20;;;;;;;;;;6050623;23;20759;-90
2021/04/18 08:18:28;;;;;;;23.67;13.03;;;;;;;;;;6051412;23;20179;-89
2021/04/18 08:21:36;;;;;;;22.43;12.37;;;;;;;;;;6051674;23;20176;-92
2021/04/18 08:24:40;;;;;;;22.73;12.60;;;;;;;;;;6052451;23;20216;-90
2021/04/18 08:28:03;;;;;;;22.33;12.53;;;;;;;;;;6050618;23;20224;-90
2021/04/18 08:31:09;;;;;;;21.00;12.73;;;;;;;;;;6051963;23;20175;-89
2021/04/18 08:34:19;;;;;;;22.20;12.33;;;;;;;;;;6049697;23;20192;-90
2021/04/18 08:37:25;;;;;;;20.60;11.93;;;;;;;;;;6049509;23;20517;-91
2021/04/18 08:40:31;;;;;;;21.57;12.20;;;;;;;;;;6051072;23;20179;-93
2021/04/18 08:43:35;;;;;;;21.50;12.83;;;;;;;;;;6050348;23;20196;-89
2021/04/18 08:46:40;;;;;;;22.17;12.70;;;;;;;;;;6054162;23;20214;-90
2021/04/18 08:49:46;;;;;;;21.83;12.90;;;;;;;;;;6054791;23;20215;-90
2021/04/18 08:53:02;;;;;;;24.00;13.03;;;;;;;;;;6053503;23;20240;-90
2021/04/18 08:56:07;;;;;;;21.73;13.07;;;;;;;;;;6055154;23;20159;-90
2021/04/18 08:59:12;;;;;;;21.63;12.40;;;;;;;;;;6050366;23;20623;-90
2021/04/18 09:02:20;;;;;;;25.00;12.67;;;;;;;;;;6052479;23;20199;-89
2021/04/18 09:05:25;;;;;;;21.87;13.10;;;;;;;;;;6055563;23;20211;-89
2021/04/18 09:08:33;;;;;;;22.00;12.57;;;;;;;;;;6050237;23;20232;-90
2021/04/18 09:11:38;;;;;;;21.33;12.50;;;;;;;;;;6050930;23;20222;-91
2021/04/18 09:14:45;;;;;;;23.17;12.90;;;;;;;;;;6055211;23;20166;-91
2021/04/18 09:17:51;;;;;;;22.53;12.80;;;;;;;;;;6054311;23;20224;-88
2021/04/18 09:21:11;;;;;;;24.67;12.60;;;;;;;;;;6055654;23;20217;-91
2021/04/18 09:24:20;;;;;;;25.13;13.03;;;;;;;;;;6052952;23;20203;-87
2021/04/18 09:27:26;;;;;;;24.47;13.20;;;;;;;;;;6054336;23;20195;-90
2021/04/18 09:30:31;;;;;;;23.37;12.97;;;;;;;;;;6054972;23;20207;-90
2021/04/18 09:33:36;;;;;;;25.43;14.07;;;;;;;;;;6053439;23;20197;-88
2021/04/18 09:36:41;;;;;;;23.07;13.23;;;;;;;;;;6051232;23;20174;-89
2021/04/18 09:39:49;;;;;;;23.07;12.50;;;;;;;;;;6050493;23;20194;-88
2021/04/18 09:42:54;;;;;;;24.13;13.03;;;;;;;;;;6050182;23;20628;-89
2021/04/18 09:46:02;;;;;;;22.93;13.63;;;;;;;;;;6052546;23;20247;-89
2021/04/18 09:49:06;;;;;;;21.73;13.47;;;;;;;;;;6049643;23;20215;-89
2021/04/18 09:52:11;;;;;;;25.53;14.50;;;;;;;;;;6053143;23;20247;-89
2021/04/18 09:55:18;;;;;;;22.77;13.97;;;;;;;;;;6047578;23;20175;-88
2021/04/18 09:58:30;;;;;;;23.73;14.00;;;;;;;;;;6048611;23;20170;-91
2021/04/18 10:01:38;;;;;;;25.77;13.27;;;;;;;;;;6054386;23;20202;-90
2021/04/18 10:04:46;;;;;;;22.67;13.17;;;;;;;;;;6053902;23;20247;-89
2021/04/18 10:07:52;;;;;;;23.60;13.25;;;;;;;;;;6056990;23;20199;-92
2021/04/18 10:10:58;;;;;;;25.15;14.05;;;;;;;;;;6056152;23;20195;-91
2021/04/18 10:14:09;;;;;;;25.80;12.57;;;;;;;;;;6055187;23;20175;-90
2021/04/18 10:17:32;;;;;;;21.48;13.15;;;;;;;;;;6055898;23;20183;-92
2021/04/18 10:23:57;;;;;;;22.75;13.48;;;;;;;;;;6058095;23;20256;-90
2021/04/18 10:27:04;;;;;;;25.25;14.98;;;;;;;;;;6058441;23;20159;-90
2021/04/18 10:30:10;;;;;;;31.98;15.40;;;;;;;;;;6057702;23;20612;-90
2021/04/18 10:33:15;;;;;;;27.43;14.73;;;;;;;;;;6055362;23;20176;-92
2021/04/18 10:36:21;;;;;;;26.63;15.93;;;;;;;;;;6053450;23;20806;-90
2021/04/18 10:39:27;;;;;;;30.20;17.03;;;;;;;;;;6055138;23;20197;-91
2021/04/18 10:42:33;;;;;;;35.33;16.70;;;;;;;;;;6052995;23;20280;-92
2021/04/18 10:45:38;;;;;;;30.60;16.30;;;;;;;;;;6054766;23;20187;-91
2021/04/18 10:48:43;;;;;;;30.73;16.60;;;;;;;;;;6053461;23;20178;-90
2021/04/18 10:51:48;;;;;;;32.42;18.20;;;;;;;;;;6056213;23;20175;-90
2021/04/18 10:54:53;;;;;;;36.38;18.00;;;;;;;;;;6055845;23;20167;-91
2021/04/18 10:58:01;;;;;;;30.90;16.02;;;;;;;;;;6059479;23;20240;-91
2021/04/18 11:01:08;;;;;;;31.40;16.23;;;;;;;;;;6055462;23;20199;-88
2021/04/18 11:04:19;;;;;;;26.83;15.25;;;;;;;;;;6059339;23;20204;-90
2021/04/18 11:07:25;;;;;;;26.63;15.25;;;;;;;;;;6062644;23;20223;-89
2021/04/18 11:10:30;;;;;;;30.13;15.68;;;;;;;;;;6056195;23;20227;-93
2021/04/18 11:13:37;;;;;;;27.35;15.15;;;;;;;;;;6052874;23;20208;-92
2021/04/18 11:16:44;;;;;;;27.23;14.77;;;;;;;;;;6054456;23;20235;-89
2021/04/18 11:19:49;;;;;;;22.48;13.27;;;;;;;;;;6055949;23;20163;-91
2021/04/18 11:22:54;;;;;;;26.23;15.13;;;;;;;;;;6054380;23;20243;-89
2021/04/18 11:25:59;;;;;;;23.92;13.95;;;;;;;;;;6052091;23;20306;-89
2021/04/18 11:29:05;;;;;;;28.58;15.50;;;;;;;;;;6047803;23;20254;-88
2021/04/18 11:32:11;;;;;;;24.65;14.85;;;;;;;;;;6046973;23;20171;-90
2021/04/18 11:35:16;;;;;;;30.85;14.85;;;;;;;;;;6048783;23;20167;-90
2021/04/18 11:38:21;;;;;;;24.40;15.13;;;;;;;;;;6049526;23;20412;-92
2021/04/18 11:41:25;;;;;;;28.75;15.10;;;;;;;;;;6047835;23;20513;-90
2021/04/18 11:44:31;;;;;;;27.60;14.73;;;;;;;;;;6050391;23;20203;-90
2021/04/18 11:47:37;;;;;;;25.27;14.68;;;;;;;;;;6054849;23;20230;-91
2021/04/18 11:50:41;;;;;;;27.50;14.02;;;;;;;;;;6051994;23;20504;-90
2021/04/18 11:53:46;;;;;;;24.20;13.75;;;;;;;;;;6053651;23;20167;-91
2021/04/18 11:56:51;;;;;;;24.55;14.43;;;;;;;;;;6052883;23;20192;-90
2021/04/18 11:59:57;;;;;;;26.33;14.65;;;;;;;;;;6054224;23;20167;-91
2021/04/18 12:03:02;;;;;;;26.48;14.38;;;;;;;;;;6054467;23;20192;-90
2021/04/18 12:06:08;;;;;;;32.50;14.45;;;;;;;;;;6052039;23;20207;-90
2021/04/18 12:12:38;;;;;;;24.55;14.20;;;;;;;;;;6059017;23;20190;-87
2021/04/18 12:15:47;;;;;;;24.48;14.43;;;;;;;;;;6062831;23;20530;-90
2021/04/18 12:18:52;;;;;;;25.88;13.57;;;;;;;;;;6058260;23;20220;-89
2021/04/18 12:21:58;;;;;;;24.67;14.23;;;;;;;;;;6059542;23;20188;-88
2021/04/18 12:25:08;;;;;;;32.30;14.95;;;;;;;;;;6061441;23;20232;-89
2021/04/18 12:28:13;;;;;;;24.83;14.15;;;;;;;;;;6062206;23;20193;-88
2021/04/18 12:35:03;;;;;;;24.33;14.30;;;;;;;;;;6060040;23;20182;-89
2021/04/18 12:38:08;;;;;;;23.87;14.10;;;;;;;;;;6058143;23;20175;-90
2021/04/18 12:41:16;;;;;;;27.17;14.23;;;;;;;;;;6061354;23;20162;-90
2021/04/18 12:44:22;;;;;;;26.50;15.07;;;;;;;;;;6043138;23;20167;-89
2021/04/18 12:47:27;;;;;;;24.23;13.00;;;;;;;;;;6059462;23;20225;-88
2021/04/18 12:50:33;;;;;;;24.40;13.65;;;;;;;;;;6056721;23;20195;-87
2021/04/18 12:53:38;;;;;;;23.10;13.48;;;;;;;;;;6056653;23;20183;-88
2021/04/18 12:56:43;;;;;;;28.13;13.80;;;;;;;;;;6052332;23;20171;-88
2021/04/18 12:59:52;;;;;;;23.25;13.20;;;;;;;;;;6053726;23;20176;-89
2021/04/18 13:02:58;;;;;;;22.08;12.93;;;;;;;;;;6054096;23;20176;-91
2021/04/18 13:06:06;;;;;;;22.83;13.45;;;;;;;;;;6054086;23;20255;-90
2021/04/18 13:09:11;;;;;;;24.20;13.90;;;;;;;;;;6057580;23;20174;-89
2021/04/18 13:12:16;;;;;;;22.77;13.65;;;;;;;;;;6055102;23;20175;-90
2021/04/18 13:15:22;;;;;;;24.00;13.70;;;;;;;;;;6054490;23;20167;-89
2021/04/18 13:18:26;;;;;;;24.98;13.10;;;;;;;;;;6054779;23;20502;-91
2021/04/18 13:21:32;;;;;;;40.95;21.85;;;;;;;;;;6053628;23;20258;-91
2021/04/18 13:24:36;;;;;;;26.00;15.52;;;;;;;;;;6054440;23;20198;-91
2021/04/18 13:27:42;;;;;;;24.23;13.70;;;;;;;;;;6054479;23;20178;-90
2021/04/18 13:30:48;;;;;;;22.73;14.10;;;;;;;;;;6056410;23;20179;-91
2021/04/18 13:33:53;;;;;;;20.75;12.75;;;;;;;;;;6056789;23;20166;-88
2021/04/18 13:36:58;;;;;;;64.72;25.92;;;;;;;;;;6054702;23;20224;-90
2021/04/18 13:40:03;;;;;;;28.42;14.38;;;;;;;;;;6055044;23;20175;-88
2021/04/18 13:43:11;;;;;;;21.17;12.52;;;;;;;;;;6055825;23;20188;-92
2021/04/18 13:46:16;;;;;;;24.90;13.43;;;;;;;;;;6054034;23;20279;-90
2021/04/18 13:49:21;;;;;;;20.65;12.50;;;;;;;;;;6054399;23;20179;-91
2021/04/18 13:52:27;;;;;;;18.15;11.63;;;;;;;;;;6053129;23;20207;-93
2021/04/18 13:55:35;;;;;;;19.38;12.13;;;;;;;;;;6060558;23;20224;-90
2021/04/18 13:58:40;;;;;;;18.48;11.35;;;;;;;;;;6057483;23;20207;-93
2021/04/18 14:01:49;;;;;;;19.23;12.23;;;;;;;;;;6058764;23;20220;-91
2021/04/18 14:05:00;;;;;;;22.30;12.27;;;;;;;;;;6058262;23;20198;-88
2021/04/18 14:08:08;;;;;;;22.38;13.23;;;;;;;;;;6062188;23;20172;-91
2021/04/18 14:11:15;;;;;;;20.95;12.50;;;;;;;;;;6060779;23;20178;-88
2021/04/18 14:14:20;;;;;;;19.35;11.43;;;;;;;;;;6061211;23;20203;-89
2021/04/18 14:17:26;;;;;;;16.85;10.60;;;;;;;;;;6060336;23;20179;-90
2021/04/18 14:20:31;;;;;;;20.05;11.95;;;;;;;;;;6060785;23;20171;-89
2021/04/18 14:23:37;;;;;;;18.27;11.35;;;;;;;;;;6057528;23;20179;-90
2021/04/18 14:26:43;;;;;;;20.75;11.48;;;;;;;;;;6058163;23;20175;-93
2021/04/18 14:29:49;;;;;;;17.45;11.18;;;;;;;;;;6056190;23;20196;-93
2021/04/18 14:32:58;;;;;;;23.27;12.73;;;;;;;;;;6059105;23;20223;-89
2021/04/18 14:36:03;;;;;;;19.05;10.80;;;;;;;;;;6058170;23;20668;-92
2021/04/18 14:39:10;;;;;;;18.20;10.90;;;;;;;;;;6057906;23;20215;-91
2021/04/18 14:42:29;;;;;;;18.63;11.30;;;;;;;;;;6061950;23;20159;-92
2021/04/18 14:45:35;;;;;;;24.90;13.88;;;;;;;;;;6056145;23;20220;-91
2021/04/18 14:48:43;;;;;;;18.98;12.18;;;;;;;;;;6059247;23;20233;-91
2021/04/18 14:51:51;;;;;;;20.40;12.05;;;;;;;;;;6055373;23;20223;-92
2021/04/18 14:54:57;;;;;;;18.85;11.70;;;;;;;;;;6061957;23;20184;-91
2021/04/18 14:58:05;;;;;;;21.17;12.00;;;;;;;;;;6061752;23;20170;-91
2021/04/18 15:01:10;;;;;;;20.67;11.63;;;;;;;;;;6060635;23;20207;-90
2021/04/18 15:04:15;;;;;;;21.58;12.40;;;;;;;;;;6058258;23;20289;-92
2021/04/18 15:39:28;;;;;;;23.00;13.13;;;;;;;;;;6148816;23;20212;-90
2021/04/18 15:42:36;;;;;;;21.58;12.70;;;;;;;;;;6159550;23;20168;-91
2021/04/18 15:45:46;;;;;;;21.88;12.30;;;;;;;;;;6159484;23;20219;-91
2021/04/18 15:48:51;;;;;;;18.92;11.52;;;;;;;;;;6159873;23;20220;-87
2021/04/18 15:51:56;;;;;;;20.77;11.50;;;;;;;;;;6158591;23;20171;-89
2021/04/18 17:00:55;;;;;;;19.10;11.83;;;;;;;;;;6090970;23;20200;-93
2021/04/18 17:04:08;;;;;;;21.27;12.27;;;;;;;;;;6073869;23;20180;-93
2021/04/18 22:00:44;;;;;;;42.43;21.97;;;;;;;;;;6138872;23;20213;-92
2021/04/18 22:03:49;;;;;;;40.83;21.83;;;;;;;;;;6156618;23;20172;-90
2021/04/18 22:10:16;;;;;;;42.23;22.37;;;;;;;;;;6181244;23;20217;-92
2021/04/18 22:13:21;;;;;;;42.80;22.57;;;;;;;;;;6164055;23;20192;-93
2021/04/18 22:23:18;;;;;;;40.93;22.10;;;;;;;;;;6163907;23;20197;-91
2021/04/18 22:26:23;;;;;;;38.63;21.93;;;;;;;;;;6158290;23;20204;-90
2021/04/18 22:29:29;;;;;;;39.27;21.17;;;;;;;;;;6158520;23;20164;-90
2021/04/18 22:32:37;;;;;;;43.50;22.57;;;;;;;;;;6158580;23;20161;-90
2021/04/18 22:35:44;;;;;;;43.47;21.70;;;;;;;;;;6157695;23;20176;-90
2021/04/18 22:38:52;;;;;;;44.77;21.97;;;;;;;;;;6156791;23;20201;-91
2021/04/18 22:41:57;;;;;;;44.67;23.33;;;;;;;;;;6155647;23;20265;-90
2021/04/18 22:45:03;;;;;;;41.80;21.80;;;;;;;;;;6156018;23;20233;-91
2021/04/18 22:48:12;;;;;;;41.83;21.83;;;;;;;;;;6156091;23;20241;-92
2021/04/18 22:51:16;;;;;;;41.83;22.50;;;;;;;;;;6155833;23;20562;-89
2021/04/18 22:54:22;;;;;;;41.77;21.70;;;;;;;;;;6154475;23;20168;-91
2021/04/18 22:57:27;;;;;;;41.30;23.20;;;;;;;;;;6155921;23;20188;-92
2021/04/18 23:00:32;;;;;;;47.00;23.73;;;;;;;;;;6137792;23;20219;-90
2021/04/18 23:03:38;;;;;;;45.67;24.10;;;;;;;;;;6157893;23;20396;-90
2021/04/18 23:06:42;;;;;;;53.30;23.57;;;;;;;;;;6156870;23;20297;-91
2021/04/18 23:09:50;;;;;;;43.43;21.90;;;;;;;;;;6156533;23;20156;-91
2021/04/18 23:12:57;;;;;;;45.27;23.00;;;;;;;;;;6155556;23;20168;-92
2021/04/18 23:16:02;;;;;;;42.80;21.93;;;;;;;;;;6154781;23;20249;-91
2021/04/18 23:19:08;;;;;;;42.63;22.83;;;;;;;;;;6154135;23;20220;-92
2021/04/18 23:22:12;;;;;;;40.40;21.70;;;;;;;;;;6155229;23;20168;-91
2021/04/18 23:25:17;;;;;;;42.63;22.17;;;;;;;;;;6153376;23;20209;-92
2021/04/18 23:28:22;;;;;;;43.93;22.27;;;;;;;;;;6154727;23;20148;-90
2021/04/18 23:31:27;;;;;;;45.87;23.70;;;;;;;;;;6154316;23;20193;-93
2021/04/18 23:34:33;;;;;;;43.80;23.00;;;;;;;;;;6156104;23;20241;-91
2021/04/18 23:37:37;;;;;;;50.47;25.13;;;;;;;;;;6155509;23;20680;-90
2021/04/18 23:40:42;;;;;;;42.33;22.67;;;;;;;;;;6153643;23;20213;-93
2021/04/18 23:43:47;;;;;;;44.70;24.47;;;;;;;;;;6153606;23;20164;-91
2021/04/18 23:46:52;;;;;;;47.93;24.23;;;;;;;;;;6145449;23;20279;-91
2021/04/18 23:49:57;;;;;;;44.43;23.00;;;;;;;;;;6151875;23;20172;-92
2021/04/18 23:53:04;;;;;;;43.30;23.33;;;;;;;;;;6152824;23;20165;-91
2021/04/18 23:56:08;;;;;;;44.10;22.50;;;;;;;;;;6153369;23;20208;-92
2021/04/18 23:59:13;;;;;;;44.60;23.57;;;;;;;;;;6170721;23;20171;-92
